sensor_id;sensor_type;location;lat;lon;timestamp;pressure;altitude;pressure_sealevel;temperature;humidity
76321;BME280;65132;52.088;5.402;2022-11-12T00:00:27;103213.03;;;4.56;90.45
76321;BME280;65132;52.088;5.402;2022-11-12T00:02:52;103206.81;;;4.56;89.85
76321;BME280;65132;52.088;5.402;2022-11-12T00:05:17;103205.00;;;4.56;90.18
76321;BME280;65132;52.088;5.402;2022-11-12T00:07:42;103206.09;;;4.51;89.47
76321;BME280;65132;52.088;5.402;2022-11-12T00:10:08;103211.63;;;4.45;90.06
76321;BME280;65132;52.088;5.402;2022-11-12T00:12:33;103202.66;;;4.46;90.05
76321;BME280;65132;52.088;5.402;2022-11-12T00:14:58;103201.72;;;4.47;89.73
76321;BME280;65132;52.088;5.402;2022-11-12T00:17:24;103207.16;;;4.45;89.84
76321;BME280;65132;52.088;5.402;2022-11-12T00:19:49;103193.75;;;4.45;90.02
76321;BME280;65132;52.088;5.402;2022-11-12T00:22:14;103200.00;;;4.46;90.18
76321;BME280;65132;52.088;5.402;2022-11-12T00:24:40;103204.63;;;4.41;89.72
76321;BME280;65132;52.088;5.402;2022-11-12T00:27:05;103210.97;;;4.37;89.53
76321;BME280;65132;52.088;5.402;2022-11-12T00:29:30;103203.09;;;4.32;89.95
76321;BME280;65132;52.088;5.402;2022-11-12T00:31:55;103217.41;;;4.31;90.02
76321;BME280;65132;52.088;5.402;2022-11-12T00:34:20;103206.81;;;4.27;89.71
76321;BME280;65132;52.088;5.402;2022-11-12T00:36:46;103205.94;;;4.26;90.00
76321;BME280;65132;52.088;5.402;2022-11-12T00:39:11;103209.47;;;4.28;89.58
76321;BME280;65132;52.088;5.402;2022-11-12T00:41:36;103210.41;;;4.26;89.96
76321;BME280;65132;52.088;5.402;2022-11-12T00:44:01;103216.91;;;4.19;89.63
76321;BME280;65132;52.088;5.402;2022-11-12T00:46:26;103214.44;;;4.11;90.78
76321;BME280;65132;52.088;5.402;2022-11-12T00:48:52;103202.88;;;4.09;90.61
76321;BME280;65132;52.088;5.402;2022-11-12T00:51:17;103208.34;;;4.06;90.40
76321;BME280;65132;52.088;5.402;2022-11-12T00:53:42;103214.69;;;4.02;90.31
76321;BME280;65132;52.088;5.402;2022-11-12T00:56:08;103219.09;;;4.05;90.18
76321;BME280;65132;52.088;5.402;2022-11-12T00:58:34;103219.84;;;4.10;90.75
76321;BME280;65132;52.088;5.402;2022-11-12T01:01:08;103208.41;;;4.05;90.46
76321;BME280;65132;52.088;5.402;2022-11-12T01:03:34;103204.13;;;3.98;90.28
76321;BME280;65132;52.088;5.402;2022-11-12T01:06:20;103207.66;;;4.00;90.28
76321;BME280;65132;52.088;5.402;2022-11-12T01:08:46;103205.91;;;3.97;90.12
76321;BME280;65132;52.088;5.402;2022-11-12T01:11:14;103202.38;;;3.97;90.37
76321;BME280;65132;52.088;5.402;2022-11-12T01:13:42;103193.56;;;3.93;90.28
76321;BME280;65132;52.088;5.402;2022-11-12T01:16:13;103195.34;;;3.93;91.10
76321;BME280;65132;52.088;5.402;2022-11-12T01:18:39;103195.44;;;3.90;90.41
76321;BME280;65132;52.088;5.402;2022-11-12T01:21:06;103213.25;;;3.91;90.37
76321;BME280;65132;52.088;5.402;2022-11-12T01:23:33;103213.44;;;3.85;90.64
76321;BME280;65132;52.088;5.402;2022-11-12T01:26:06;103200.31;;;3.76;90.53
76321;BME280;65132;52.088;5.402;2022-11-12T01:28:32;103204.66;;;3.80;90.67
76321;BME280;65132;52.088;5.402;2022-11-12T01:31:15;103211.88;;;3.78;91.01
76321;BME280;65132;52.088;5.402;2022-11-12T01:33:42;103211.06;;;3.74;91.35
76321;BME280;65132;52.088;5.402;2022-11-12T01:36:08;103204.72;;;3.77;91.02
76321;BME280;65132;52.088;5.402;2022-11-12T01:38:35;103207.34;;;3.80;90.73
76321;BME280;65132;52.088;5.402;2022-11-12T01:41:01;103206.50;;;3.78;90.50
76321;BME280;65132;52.088;5.402;2022-11-12T01:43:26;103201.41;;;3.68;90.92
76321;BME280;65132;52.088;5.402;2022-11-12T01:45:52;103204.91;;;3.71;91.49
76321;BME280;65132;52.088;5.402;2022-11-12T01:48:25;103201.25;;;3.73;91.30
76321;BME280;65132;52.088;5.402;2022-11-12T01:50:53;103204.97;;;3.69;91.23
76321;BME280;65132;52.088;5.402;2022-11-12T01:53:20;103190.97;;;3.58;91.43
76321;BME280;65132;52.088;5.402;2022-11-12T01:55:47;103189.41;;;3.51;91.39
76321;BME280;65132;52.088;5.402;2022-11-12T01:58:15;103191.38;;;3.44;91.70
76321;BME280;65132;52.088;5.402;2022-11-12T02:00:42;103196.84;;;3.40;91.42
76321;BME280;65132;52.088;5.402;2022-11-12T02:03:12;103200.38;;;3.42;92.03
76321;BME280;65132;52.088;5.402;2022-11-12T02:05:39;103199.56;;;3.38;91.07
76321;BME280;65132;52.088;5.402;2022-11-12T02:08:06;103198.06;;;3.28;91.67
76321;BME280;65132;52.088;5.402;2022-11-12T02:10:34;103199.72;;;3.32;91.79
76321;BME280;65132;52.088;5.402;2022-11-12T02:12:59;103203.25;;;3.34;91.56
76321;BME280;65132;52.088;5.402;2022-11-12T02:15:25;103193.28;;;3.39;92.24
76321;BME280;65132;52.088;5.402;2022-11-12T02:17:51;103189.72;;;3.40;91.73
76321;BME280;65132;52.088;5.402;2022-11-12T02:20:17;103189.63;;;3.43;92.08
76321;BME280;65132;52.088;5.402;2022-11-12T02:22:43;103190.41;;;3.47;91.96
76321;BME280;65132;52.088;5.402;2022-11-12T02:25:16;103179.63;;;3.50;91.04
76321;BME280;65132;52.088;5.402;2022-11-12T02:27:43;103181.41;;;3.49;91.74
76321;BME280;65132;52.088;5.402;2022-11-12T02:30:09;103176.16;;;3.46;91.97
76321;BME280;65132;52.088;5.402;2022-11-12T02:32:35;103186.66;;;3.52;91.86
76321;BME280;65132;52.088;5.402;2022-11-12T02:35:00;103170.69;;;3.49;91.01
76321;BME280;65132;52.088;5.402;2022-11-12T02:37:25;103172.53;;;3.47;92.14
76321;BME280;65132;52.088;5.402;2022-11-12T02:39:51;103173.44;;;3.48;91.50
76321;BME280;65132;52.088;5.402;2022-11-12T02:42:16;103176.06;;;3.49;91.53
76321;BME280;65132;52.088;5.402;2022-11-12T02:44:41;103173.47;;;3.46;92.19
76321;BME280;65132;52.088;5.402;2022-11-12T02:47:08;103160.13;;;3.45;91.53
76321;BME280;65132;52.088;5.402;2022-11-12T02:49:33;103165.53;;;3.43;91.58
76321;BME280;65132;52.088;5.402;2022-11-12T02:51:58;103170.09;;;3.40;91.05
76321;BME280;65132;52.088;5.402;2022-11-12T02:54:23;103171.25;;;3.30;90.97
76321;BME280;65132;52.088;5.402;2022-11-12T02:56:48;103175.00;;;3.23;91.33
76321;BME280;65132;52.088;5.402;2022-11-12T02:59:14;103179.88;;;3.07;91.08
76321;BME280;65132;52.088;5.402;2022-11-12T03:01:39;103174.53;;;3.07;91.15
76321;BME280;65132;52.088;5.402;2022-11-12T03:04:04;103174.72;;;3.01;92.32
76321;BME280;65132;52.088;5.402;2022-11-12T03:06:29;103173.78;;;3.02;91.58
76321;BME280;65132;52.088;5.402;2022-11-12T03:08:54;103171.00;;;3.05;91.47
76321;BME280;65132;52.088;5.402;2022-11-12T03:11:19;103174.72;;;3.01;91.52
76321;BME280;65132;52.088;5.402;2022-11-12T03:13:45;103181.78;;;3.02;90.87
76321;BME280;65132;52.088;5.402;2022-11-12T03:16:10;103180.06;;;3.01;91.52
76321;BME280;65132;52.088;5.402;2022-11-12T03:18:35;103184.59;;;2.98;91.58
76321;BME280;65132;52.088;5.402;2022-11-12T03:21:00;103182.19;;;2.87;91.68
76321;BME280;65132;52.088;5.402;2022-11-12T03:23:26;103176.94;;;2.83;92.03
76321;BME280;65132;52.088;5.402;2022-11-12T03:25:52;103160.81;;;2.87;91.83
76321;BME280;65132;52.088;5.402;2022-11-12T03:28:17;103173.53;;;2.76;91.24
76321;BME280;65132;52.088;5.402;2022-11-12T03:30:42;103165.47;;;2.79;91.91
76321;BME280;65132;52.088;5.402;2022-11-12T03:33:11;103165.38;;;2.82;91.93
76321;BME280;65132;52.088;5.402;2022-11-12T03:35:37;103173.38;;;2.84;92.45
76321;BME280;65132;52.088;5.402;2022-11-12T03:38:03;103173.31;;;2.85;92.22
76321;BME280;65132;52.088;5.402;2022-11-12T03:40:29;103174.03;;;2.92;91.76
76321;BME280;65132;52.088;5.402;2022-11-12T03:42:55;103175.31;;;2.77;92.36
76321;BME280;65132;52.088;5.402;2022-11-12T03:45:21;103181.75;;;2.69;91.65
76321;BME280;65132;52.088;5.402;2022-11-12T03:47:50;103180.97;;;2.65;91.97
76321;BME280;65132;52.088;5.402;2022-11-12T03:50:16;103180.97;;;2.65;92.29
76321;BME280;65132;52.088;5.402;2022-11-12T03:52:46;103182.63;;;2.69;91.92
76321;BME280;65132;52.088;5.402;2022-11-12T03:55:13;103181.81;;;2.66;92.01
76321;BME280;65132;52.088;5.402;2022-11-12T03:57:39;103176.59;;;2.61;91.29
76321;BME280;65132;52.088;5.402;2022-11-12T04:00:06;103178.56;;;2.53;92.19
76321;BME280;65132;52.088;5.402;2022-11-12T04:02:31;103175.22;;;2.45;92.58
76321;BME280;65132;52.088;5.402;2022-11-12T04:04:57;103172.31;;;2.54;92.26
76321;BME280;65132;52.088;5.402;2022-11-12T04:07:22;103167.75;;;2.58;92.33
76321;BME280;65132;52.088;5.402;2022-11-12T04:09:47;103169.38;;;2.65;92.66
76321;BME280;65132;52.088;5.402;2022-11-12T04:12:13;103176.47;;;2.67;91.77
76321;BME280;65132;52.088;5.402;2022-11-12T04:14:38;103181.94;;;2.61;92.33
76321;BME280;65132;52.088;5.402;2022-11-12T04:17:04;103179.34;;;2.58;93.02
76321;BME280;65132;52.088;5.402;2022-11-12T04:19:29;103179.19;;;2.64;91.88
76321;BME280;65132;52.088;5.402;2022-11-12T04:22:03;103179.25;;;2.61;92.68
76321;BME280;65132;52.088;5.402;2022-11-12T04:24:40;103182.91;;;2.59;92.60
76321;BME280;65132;52.088;5.402;2022-11-12T04:27:08;103190.88;;;2.60;93.15
76321;BME280;65132;52.088;5.402;2022-11-12T04:29:34;103186.38;;;2.61;92.11
76321;BME280;65132;52.088;5.402;2022-11-12T04:31:59;103183.00;;;2.54;92.50
76321;BME280;65132;52.088;5.402;2022-11-12T04:34:24;103179.47;;;2.52;92.19
76321;BME280;65132;52.088;5.402;2022-11-12T04:36:50;103175.97;;;2.50;92.20
76321;BME280;65132;52.088;5.402;2022-11-12T04:39:15;103177.81;;;2.48;92.27
76321;BME280;65132;52.088;5.402;2022-11-12T04:41:40;103171.63;;;2.46;92.23
76321;BME280;65132;52.088;5.402;2022-11-12T04:44:05;103177.88;;;2.45;92.78
76321;BME280;65132;52.088;5.402;2022-11-12T04:46:30;103174.28;;;2.46;93.29
76321;BME280;65132;52.088;5.402;2022-11-12T04:48:56;103166.19;;;2.49;92.54
76321;BME280;65132;52.088;5.402;2022-11-12T04:51:21;103165.28;;;2.50;93.25
76321;BME280;65132;52.088;5.402;2022-11-12T04:53:46;103170.56;;;2.53;92.56
76321;BME280;65132;52.088;5.402;2022-11-12T04:56:11;103166.28;;;2.46;92.43
76321;BME280;65132;52.088;5.402;2022-11-12T04:58:36;103172.50;;;2.47;92.66
76321;BME280;65132;52.088;5.402;2022-11-12T05:01:02;103169.81;;;2.47;92.47
76321;BME280;65132;52.088;5.402;2022-11-12T05:03:27;103166.34;;;2.43;92.12
76321;BME280;65132;52.088;5.402;2022-11-12T05:05:52;103157.41;;;2.44;92.18
76321;BME280;65132;52.088;5.402;2022-11-12T05:08:17;103155.69;;;2.41;92.21
76321;BME280;65132;52.088;5.402;2022-11-12T05:10:43;103145.88;;;2.42;92.44
76321;BME280;65132;52.088;5.402;2022-11-12T05:13:08;103146.75;;;2.42;92.69
76321;BME280;65132;52.088;5.402;2022-11-12T05:15:33;103146.84;;;2.39;92.48
76321;BME280;65132;52.088;5.402;2022-11-12T05:17:58;103152.19;;;2.39;92.25
76321;BME280;65132;52.088;5.402;2022-11-12T05:20:24;103155.69;;;2.41;92.28
76321;BME280;65132;52.088;5.402;2022-11-12T05:22:49;103153.06;;;2.40;92.65
76321;BME280;65132;52.088;5.402;2022-11-12T05:25:14;103147.69;;;2.41;92.77
76321;BME280;65132;52.088;5.402;2022-11-12T05:27:39;103136.19;;;2.38;92.81
76321;BME280;65132;52.088;5.402;2022-11-12T05:30:05;103145.22;;;2.32;92.64
76321;BME280;65132;52.088;5.402;2022-11-12T05:32:30;103145.25;;;2.31;92.44
76321;BME280;65132;52.088;5.402;2022-11-12T05:34:55;103143.75;;;2.19;92.18
76321;BME280;65132;52.088;5.402;2022-11-12T05:37:21;103146.47;;;2.16;92.08
76321;BME280;65132;52.088;5.402;2022-11-12T05:39:46;103152.91;;;2.08;91.59
76321;BME280;65132;52.088;5.402;2022-11-12T05:42:11;103149.47;;;2.01;91.89
76321;BME280;65132;52.088;5.402;2022-11-12T05:44:36;103158.22;;;2.08;92.50
76321;BME280;65132;52.088;5.402;2022-11-12T05:47:02;103155.44;;;2.14;91.87
76321;BME280;65132;52.088;5.402;2022-11-12T05:49:27;103157.34;;;2.09;91.88
76321;BME280;65132;52.088;5.402;2022-11-12T05:51:52;103157.53;;;2.00;92.06
76321;BME280;65132;52.088;5.402;2022-11-12T05:54:17;103165.66;;;1.95;92.61
76321;BME280;65132;52.088;5.402;2022-11-12T05:56:43;103159.47;;;1.93;92.40
76321;BME280;65132;52.088;5.402;2022-11-12T05:59:11;103166.53;;;1.94;93.07
76321;BME280;65132;52.088;5.402;2022-11-12T06:01:37;103161.09;;;2.00;93.10
76321;BME280;65132;52.088;5.402;2022-11-12T06:04:03;103155.78;;;1.99;93.50
76321;BME280;65132;52.088;5.402;2022-11-12T06:06:28;103156.56;;;2.04;93.00
76321;BME280;65132;52.088;5.402;2022-11-12T06:08:53;103157.38;;;2.07;93.59
76321;BME280;65132;52.088;5.402;2022-11-12T06:11:18;103162.78;;;2.03;92.55
76321;BME280;65132;52.088;5.402;2022-11-12T06:13:44;103168.09;;;2.06;93.09
76321;BME280;65132;52.088;5.402;2022-11-12T06:16:09;103162.59;;;2.12;93.16
76321;BME280;65132;52.088;5.402;2022-11-12T06:18:34;103153.09;;;2.00;93.44
76321;BME280;65132;52.088;5.402;2022-11-12T06:21:01;103150.44;;;1.99;93.62
76321;BME280;65132;52.088;5.402;2022-11-12T06:23:27;103149.59;;;1.97;93.91
76321;BME280;65132;52.088;5.402;2022-11-12T06:25:52;103158.34;;;2.03;93.39
76321;BME280;65132;52.088;5.402;2022-11-12T06:28:17;103160.28;;;1.97;93.89
76321;BME280;65132;52.088;5.402;2022-11-12T06:30:42;103155.00;;;1.94;93.87
76321;BME280;65132;52.088;5.402;2022-11-12T06:33:07;103159.34;;;1.98;93.04
76321;BME280;65132;52.088;5.402;2022-11-12T06:35:33;103169.22;;;1.94;93.46
76321;BME280;65132;52.088;5.402;2022-11-12T06:37:58;103174.44;;;2.00;93.17
76321;BME280;65132;52.088;5.402;2022-11-12T06:40:23;103167.31;;;1.99;93.10
76321;BME280;65132;52.088;5.402;2022-11-12T06:42:55;103165.66;;;1.95;93.08
76321;BME280;65132;52.088;5.402;2022-11-12T06:45:22;103155.88;;;1.94;93.71
76321;BME280;65132;52.088;5.402;2022-11-12T06:47:47;103159.38;;;1.96;93.43
76321;BME280;65132;52.088;5.402;2022-11-12T06:50:12;103170.88;;;2.00;93.39
76321;BME280;65132;52.088;5.402;2022-11-12T06:52:37;103155.78;;;1.99;93.09
76321;BME280;65132;52.088;5.402;2022-11-12T06:55:04;103166.41;;;2.02;93.43
76321;BME280;65132;52.088;5.402;2022-11-12T06:57:30;103169.88;;;2.05;93.89
76321;BME280;65132;52.088;5.402;2022-11-12T06:59:57;103169.06;;;2.02;93.14
76321;BME280;65132;52.088;5.402;2022-11-12T07:02:22;103171.81;;;1.99;93.27
76321;BME280;65132;52.088;5.402;2022-11-12T07:04:48;103174.41;;;2.02;93.80
76321;BME280;65132;52.088;5.402;2022-11-12T07:07:13;103173.44;;;2.04;93.85
76321;BME280;65132;52.088;5.402;2022-11-12T07:09:38;103169.91;;;2.04;93.03
76321;BME280;65132;52.088;5.402;2022-11-12T07:12:03;103181.38;;;2.09;93.33
76321;BME280;65132;52.088;5.402;2022-11-12T07:14:29;103183.09;;;2.11;93.47
76321;BME280;65132;52.088;5.402;2022-11-12T07:16:54;103177.66;;;2.16;92.49
76321;BME280;65132;52.088;5.402;2022-11-12T07:19:19;103195.25;;;2.26;91.76
76321;BME280;65132;52.088;5.402;2022-11-12T07:21:44;103195.91;;;2.35;92.75
76321;BME280;65132;52.088;5.402;2022-11-12T07:24:10;103200.22;;;2.41;92.17
76321;BME280;65132;52.088;5.402;2022-11-12T07:26:35;103200.31;;;2.38;92.54
76321;BME280;65132;52.088;5.402;2022-11-12T07:29:00;103201.66;;;2.57;91.78
76321;BME280;65132;52.088;5.402;2022-11-12T07:31:25;103197.47;;;2.82;90.93
76321;BME280;65132;52.088;5.402;2022-11-12T07:33:50;103200.38;;;3.07;90.39
76321;BME280;65132;52.088;5.402;2022-11-12T07:36:19;103208.44;;;3.40;89.22
76321;BME280;65132;52.088;5.402;2022-11-12T07:38:45;103200.13;;;3.82;87.43
76321;BME280;65132;52.088;5.402;2022-11-12T07:41:16;103198.53;;;4.36;86.52
76321;BME280;65132;52.088;5.402;2022-11-12T07:43:43;103196.34;;;5.02;83.84
76321;BME280;65132;52.088;5.402;2022-11-12T07:46:14;103197.78;;;5.87;80.22
76321;BME280;65132;52.088;5.402;2022-11-12T07:48:41;103182.75;;;6.73;76.92
76321;BME280;65132;52.088;5.402;2022-11-12T07:51:17;103188.19;;;7.35;73.81
76321;BME280;65132;52.088;5.402;2022-11-12T07:53:44;103188.28;;;8.12;71.38
76321;BME280;65132;52.088;5.402;2022-11-12T07:56:11;103190.97;;;8.86;68.85
76321;BME280;65132;52.088;5.402;2022-11-12T07:58:37;103191.75;;;9.24;66.65
76321;BME280;65132;52.088;5.402;2022-11-12T08:03:46;103188.50;;;9.84;65.32
76321;BME280;65132;52.088;5.402;2022-11-12T08:06:12;103195.50;;;9.88;64.26
76321;BME280;65132;52.088;5.402;2022-11-12T08:08:37;103203.41;;;9.76;64.43
76321;BME280;65132;52.088;5.402;2022-11-12T08:11:02;103207.16;;;9.56;65.34
76321;BME280;65132;52.088;5.402;2022-11-12T08:13:27;103210.75;;;9.39;66.38
76321;BME280;65132;52.088;5.402;2022-11-12T08:15:56;103210.16;;;8.99;66.91
76321;BME280;65132;52.088;5.402;2022-11-12T08:18:21;103205.63;;;8.81;68.76
76321;BME280;65132;52.088;5.402;2022-11-12T08:20:46;103213.06;;;8.94;68.58
76321;BME280;65132;52.088;5.402;2022-11-12T08:23:12;103213.56;;;9.02;69.37
76321;BME280;65132;52.088;5.402;2022-11-12T08:25:37;103203.56;;;9.21;nan
76321;BME280;65132;52.088;5.402;2022-11-12T08:28:03;103209.88;;;9.56;68.68
76321;BME280;65132;52.088;5.402;2022-11-12T08:30:29;103207.41;;;10.01;68.72
76321;BME280;65132;52.088;5.402;2022-11-12T08:33:00;103207.22;;;10.38;66.71
76321;BME280;65132;52.088;5.402;2022-11-12T08:35:27;103200.59;;;11.50;64.44
76321;BME280;65132;52.088;5.402;2022-11-12T08:38:00;103200.69;;;12.76;61.20
76321;BME280;65132;52.088;5.402;2022-11-12T08:40:27;103210.22;;;13.49;59.60
76321;BME280;65132;52.088;5.402;2022-11-12T08:43:01;103205.19;;;14.32;57.29
76321;BME280;65132;52.088;5.402;2022-11-12T08:45:27;103209.59;;;12.78;60.50
76321;BME280;65132;52.088;5.402;2022-11-12T08:47:57;103204.00;;;12.94;62.90
76321;BME280;65132;52.088;5.402;2022-11-12T08:50:23;103209.97;;;12.03;64.90
76321;BME280;65132;52.088;5.402;2022-11-12T08:52:48;103203.34;;;11.93;66.52
76321;BME280;65132;52.088;5.402;2022-11-12T08:55:13;103210.63;;;12.35;63.99
76321;BME280;65132;52.088;5.402;2022-11-12T08:57:42;103206.06;;;12.22;64.57
76321;BME280;65132;52.088;5.402;2022-11-12T09:00:13;103196.97;;;12.77;63.73
76321;BME280;65132;52.088;5.402;2022-11-12T09:02:38;103200.72;;;12.48;63.43
76321;BME280;65132;52.088;5.402;2022-11-12T09:05:04;103202.78;;;12.17;63.51
76321;BME280;65132;52.088;5.402;2022-11-12T09:07:30;103206.16;;;12.06;65.20
76321;BME280;65132;52.088;5.402;2022-11-12T09:09:55;103199.78;;;12.76;61.99
76321;BME280;65132;52.088;5.402;2022-11-12T09:12:21;103201.56;;;13.82;60.17
76321;BME280;65132;52.088;5.402;2022-11-12T09:14:46;103202.88;;;13.89;57.64
76321;BME280;65132;52.088;5.402;2022-11-12T09:17:11;103193.88;;;14.26;57.76
76321;BME280;65132;52.088;5.402;2022-11-12T09:19:37;103198.66;;;14.35;56.71
76321;BME280;65132;52.088;5.402;2022-11-12T09:22:03;103195.88;;;14.60;56.86
76321;BME280;65132;52.088;5.402;2022-11-12T09:24:28;103200.88;;;14.66;55.39
76321;BME280;65132;52.088;5.402;2022-11-12T09:26:53;103200.84;;;15.73;53.37
76321;BME280;65132;52.088;5.402;2022-11-12T09:29:19;103204.19;;;15.18;54.21
76321;BME280;65132;52.088;5.402;2022-11-12T09:32:27;103206.13;;;14.69;56.42
76321;BME280;65132;52.088;5.402;2022-11-12T09:35:12;103210.28;;;13.87;58.04
76321;BME280;65132;52.088;5.402;2022-11-12T09:37:58;103212.97;;;13.62;59.23
76321;BME280;65132;52.088;5.402;2022-11-12T09:48:30;103197.09;;;15.39;54.09
76321;BME280;65132;52.088;5.402;2022-11-12T09:51:27;103209.41;;;14.24;57.47
76321;BME280;65132;52.088;5.402;2022-11-12T09:54:31;103205.59;;;14.64;56.45
76321;BME280;65132;52.088;5.402;2022-11-12T09:57:18;103211.41;;;14.34;58.07
76321;BME280;65132;52.088;5.402;2022-11-12T10:00:14;103204.81;;;14.62;55.16
76321;BME280;65132;52.088;5.402;2022-11-12T10:03:45;103214.00;;;14.11;57.25
76321;BME280;65132;52.088;5.402;2022-11-12T10:06:15;103210.53;;;14.21;56.43
76321;BME280;65132;52.088;5.402;2022-11-12T10:09:13;103226.97;;;14.45;55.86
76321;BME280;65132;52.088;5.402;2022-11-12T10:12:15;103208.91;;;14.68;56.18
76321;BME280;65132;52.088;5.402;2022-11-12T10:19:03;103198.75;;;15.06;54.08
76321;BME280;65132;52.088;5.402;2022-11-12T10:24:19;103205.38;;;15.62;52.08
76321;BME280;65132;52.088;5.402;2022-11-12T10:26:47;103205.72;;;15.33;53.99
76321;BME280;65132;52.088;5.402;2022-11-12T10:29:30;103203.91;;;16.69;50.71
76321;BME280;65132;52.088;5.402;2022-11-12T10:32:02;103194.69;;;16.70;49.15
76321;BME280;65132;52.088;5.402;2022-11-12T10:34:28;103202.47;;;15.87;51.78
76321;BME280;65132;52.088;5.402;2022-11-12T10:37:01;103197.41;;;16.70;50.05
76321;BME280;65132;52.088;5.402;2022-11-12T10:39:41;103203.72;;;16.16;51.46
76321;BME280;65132;52.088;5.402;2022-11-12T10:42:14;103191.97;;;16.59;50.99
76321;BME280;65132;52.088;5.402;2022-11-12T10:44:41;103184.88;;;18.45;47.87
76321;BME280;65132;52.088;5.402;2022-11-12T10:50:05;103182.31;;;18.53;46.17
76321;BME280;65132;52.088;5.402;2022-11-12T10:52:36;103181.44;;;19.21;44.55
76321;BME280;65132;52.088;5.402;2022-11-12T10:55:32;103181.69;;;18.20;45.68
76321;BME280;65132;52.088;5.402;2022-11-12T10:58:12;103181.63;;;17.17;47.99
76321;BME280;65132;52.088;5.402;2022-11-12T11:00:52;103181.09;;;17.65;47.31
76321;BME280;65132;52.088;5.402;2022-11-12T11:03:24;103185.84;;;16.23;50.76
76321;BME280;65132;52.088;5.402;2022-11-12T11:06:01;103187.00;;;15.52;53.79
76321;BME280;65132;52.088;5.402;2022-11-12T11:08:34;103173.81;;;16.14;52.26
76321;BME280;65132;52.088;5.402;2022-11-12T11:11:23;103172.91;;;17.75;47.66
76321;BME280;65132;52.088;5.402;2022-11-12T11:13:51;103165.53;;;18.47;46.15
76321;BME280;65132;52.088;5.402;2022-11-12T11:16:24;103162.88;;;18.85;44.98
76321;BME280;65132;52.088;5.402;2022-11-12T11:18:56;103153.97;;;18.92;44.91
76321;BME280;65132;52.088;5.402;2022-11-12T11:24:24;103161.38;;;19.49;42.95
76321;BME280;65132;52.088;5.402;2022-11-12T11:30:19;103156.97;;;20.41;42.24
76321;BME280;65132;52.088;5.402;2022-11-12T11:43:52;103128.94;;;22.29;37.23
76321;BME280;65132;52.088;5.402;2022-11-12T11:46:37;103142.16;;;22.17;37.63
76321;BME280;65132;52.088;5.402;2022-11-12T12:00:23;103136.94;;;21.02;39.35
76321;BME280;65132;52.088;5.402;2022-11-12T12:05:43;103126.81;;;23.22;36.44
76321;BME280;65132;52.088;5.402;2022-11-12T12:11:22;103124.91;;;23.87;34.72
76321;BME280;65132;52.088;5.402;2022-11-12T12:14:03;103123.09;;;22.58;36.38
76321;BME280;65132;52.088;5.402;2022-11-12T12:22:15;103112.59;;;24.91;32.65
76321;BME280;65132;52.088;5.402;2022-11-12T12:24:55;103105.38;;;25.13;31.55
76321;BME280;65132;52.088;5.402;2022-11-12T12:27:31;103095.22;;;24.74;32.64
76321;BME280;65132;52.088;5.402;2022-11-12T12:30:05;103092.16;;;24.31;33.76
76321;BME280;65132;52.088;5.402;2022-11-12T12:32:38;103083.88;;;24.15;34.45
76321;BME280;65132;52.088;5.402;2022-11-12T12:35:28;103084.69;;;22.46;36.56
76321;BME280;65132;52.088;5.402;2022-11-12T12:40:34;103065.88;;;23.08;35.75
76321;BME280;65132;52.088;5.402;2022-11-12T12:43:17;103082.94;;;23.84;34.69
76321;BME280;65132;52.088;5.402;2022-11-12T12:45:46;103074.25;;;24.11;33.62
76321;BME280;65132;52.088;5.402;2022-11-12T12:48:43;103067.09;;;24.16;33.35
76321;BME280;65132;52.088;5.402;2022-11-12T12:51:11;103062.75;;;24.22;33.90
76321;BME280;65132;52.088;5.402;2022-11-12T12:53:38;103060.59;;;24.78;33.63
76321;BME280;65132;52.088;5.402;2022-11-12T12:58:58;103052.13;;;24.95;33.12
76321;BME280;65132;52.088;5.402;2022-11-12T13:01:28;103036.28;;;25.63;31.40
76321;BME280;65132;52.088;5.402;2022-11-12T13:03:58;103036.28;;;26.36;30.77
76321;BME280;65132;52.088;5.402;2022-11-12T13:08:56;103033.72;;;28.76;28.23
76321;BME280;65132;52.088;5.402;2022-11-12T13:17:08;103020.72;;;29.42;26.52
76321;BME280;65132;52.088;5.402;2022-11-12T13:37:43;103005.22;;;30.36;25.78
76321;BME280;65132;52.088;5.402;2022-11-12T13:40:14;103009.06;;;28.80;27.71
76321;BME280;65132;52.088;5.402;2022-11-12T13:42:41;102999.13;;;30.52;26.36
76321;BME280;65132;52.088;5.402;2022-11-12T13:45:09;103004.78;;;31.08;25.94
76321;BME280;65132;52.088;5.402;2022-11-12T13:47:36;102999.41;;;31.37;25.22
76321;BME280;65132;52.088;5.402;2022-11-12T13:50:07;103000.00;;;28.58;28.97
76321;BME280;65132;52.088;5.402;2022-11-12T13:52:34;103000.31;;;29.22;27.25
76321;BME280;65132;52.088;5.402;2022-11-12T13:55:11;102997.94;;;29.52;27.43
76321;BME280;65132;52.088;5.402;2022-11-12T13:57:38;102991.06;;;30.37;26.15
76321;BME280;65132;52.088;5.402;2022-11-12T14:02:45;102999.44;;;29.15;27.42
76321;BME280;65132;52.088;5.402;2022-11-12T14:05:15;102996.38;;;30.45;26.15
76321;BME280;65132;52.088;5.402;2022-11-12T14:07:53;102999.22;;;29.56;27.21
76321;BME280;65132;52.088;5.402;2022-11-12T14:16:48;102976.59;;;30.47;26.17
76321;BME280;65132;52.088;5.402;2022-11-12T14:22:19;102969.25;;;30.52;26.29
76321;BME280;65132;52.088;5.402;2022-11-12T14:24:50;102975.13;;;30.38;26.92
76321;BME280;65132;52.088;5.402;2022-11-12T14:32:53;102971.69;;;23.57;38.03
76321;BME280;65132;52.088;5.402;2022-11-12T14:35:30;102960.41;;;21.73;40.78
76321;BME280;65132;52.088;5.402;2022-11-12T14:40:37;102960.66;;;19.60;45.93
76321;BME280;65132;52.088;5.402;2022-11-12T14:43:17;102952.19;;;18.98;46.85
76321;BME280;65132;52.088;5.402;2022-11-12T14:45:53;102950.13;;;18.24;49.72
76321;BME280;65132;52.088;5.402;2022-11-12T14:48:20;102951.78;;;17.77;51.33
76321;BME280;65132;52.088;5.402;2022-11-12T14:50:49;102956.00;;;16.80;53.17
76321;BME280;65132;52.088;5.402;2022-11-12T14:53:46;102960.13;;;16.42;54.79
76321;BME280;65132;52.088;5.402;2022-11-12T14:56:41;102965.66;;;16.20;55.33
76321;BME280;65132;52.088;5.402;2022-11-12T14:59:11;102964.09;;;16.07;55.41